Time;durP1;ratioP1;P1;durP2;ratioP2;P2;SDS_P1;SDS_P2;PMS_P1;PMS_P2;Temp;Humidity;BMP_temperature;BMP_pressure;BME280_temperature;BME280_humidity;BME280_pressure;Samples;Min_cycle;Max_cycle;Signal;HPM_P1;HPM_P2
2023/01/07 11:54:38;;;;;;;11.90;2.60;;;12.70;99.90;;;;;;5068723;28;20583;-70
2023/01/07 11:57:21;;;;;;;2.10;1.90;;;12.80;99.90;;;;;;5064879;28;20429;-71
2023/01/07 11:59:46;;;;;;;1.80;1.67;;;13.00;99.90;;;;;;5051841;28;20442;-72
2023/01/07 12:02:25;;;;;;;2.50;1.67;;;13.00;99.90;;;;;;5054026;28;20430;-71
2023/01/07 12:04:51;;;;;;;2.80;1.53;;;13.10;99.90;;;;;;5053828;28;20175;-70
2023/01/07 12:07:17;;;;;;;2.33;1.73;;;13.20;99.90;;;;;;5056620;28;21314;-70
2023/01/07 12:09:44;;;;;;;2.20;1.60;;;13.30;99.90;;;;;;5058116;28;20178;-70
2023/01/07 12:12:38;;;;;;;3.63;1.50;;;13.40;99.90;;;;;;5055961;28;20191;-70
2023/01/07 12:15:19;;;;;;;1.70;1.60;;;13.30;99.90;;;;;;5060286;28;20440;-71
2023/01/07 12:17:48;;;;;;;1.27;1.17;;;13.20;99.90;;;;;;5060597;28;20430;-70
2023/01/07 12:20:31;;;;;;;2.57;1.20;;;13.20;99.90;;;;;;5061653;28;20430;-69
2023/01/07 12:23:10;;;;;;;2.83;1.83;;;13.10;99.90;;;;;;5050743;28;20469;-70
2023/01/07 12:25:52;;;;;;;1.30;1.20;;;13.00;99.90;;;;;;5056330;28;20781;-70
2023/01/07 12:28:31;;;;;;;1.63;1.30;;;13.10;99.90;;;;;;5064363;28;20463;-66
2023/01/07 12:31:33;;;;;;;1.30;1.20;;;13.00;99.90;;;;;;5062010;28;20452;-67
2023/01/07 12:34:27;;;;;;;1.37;1.23;;;12.80;99.90;;;;;;5054487;28;20910;-67
2023/01/07 12:37:02;;;;;;;3.63;1.40;;;12.80;99.90;;;;;;5057829;28;20451;-66
2023/01/07 12:39:45;;;;;;;2.10;1.30;;;12.80;99.90;;;;;;5056784;28;20443;-66
2023/01/07 12:42:19;;;;;;;1.20;1.10;;;12.80;99.90;;;;;;5061081;28;20464;-67
2023/01/07 12:44:58;;;;;;;1.30;1.20;;;12.90;99.90;;;;;;5051924;28;20434;-67
2023/01/07 12:47:30;;;;;;;1.77;1.50;;;12.90;99.90;;;;;;5065271;28;20460;-67
2023/01/07 12:49:58;;;;;;;1.43;1.23;;;12.90;99.90;;;;;;5048876;28;20429;-67
2023/01/07 12:52:42;;;;;;;2.47;1.40;;;12.90;99.90;;;;;;5052312;28;20524;-67
2023/01/07 12:55:22;;;;;;;1.60;1.17;;;13.00;99.90;;;;;;5055717;28;20761;-66
2023/01/07 12:58:14;;;;;;;1.77;1.10;;;13.00;99.90;;;;;;5052807;28;20441;-66
2023/01/07 13:01:06;;;;;;;1.30;1.10;;;13.00;99.90;;;;;;5056038;28;20475;-66
2023/01/07 13:03:50;;;;;;;1.50;1.10;;;13.10;99.90;;;;;;5059060;28;20432;-66
2023/01/07 13:06:30;;;;;;;1.40;1.20;;;13.00;99.90;;;;;;5044079;28;20473;-66
2023/01/07 13:09:16;;;;;;;3.97;1.33;;;12.90;99.90;;;;;;5043299;28;20438;-66
2023/01/07 13:14:42;;;;;;;1.47;1.10;;;13.10;99.90;;;;;;5040814;28;20460;-67
2023/01/07 13:17:28;;;;;;;1.53;1.37;;;13.00;99.90;;;;;;5034606;28;20430;-66
2023/01/07 13:19:54;;;;;;;1.70;1.13;;;13.00;99.90;;;;;;5035033;28;20430;-67
2023/01/07 13:22:31;;;;;;;2.10;1.20;;;12.90;99.90;;;;;;5042894;28;20434;-68
2023/01/07 13:25:11;;;;;;;1.50;0.90;;;12.90;99.90;;;;;;5043203;28;20868;-68
2023/01/07 13:28:13;;;;;;;1.20;0.97;;;12.90;99.90;;;;;;5039161;28;20839;-68
2023/01/07 13:31:08;;;;;;;1.60;1.43;;;12.90;99.90;;;;;;5046979;28;20429;-67
2023/01/07 13:34:03;;;;;;;2.10;1.13;;;13.00;99.90;;;;;;5034131;28;20838;-67
2023/01/07 13:36:36;;;;;;;2.90;1.20;;;13.10;99.90;;;;;;5044958;28;20973;-68
2023/01/07 13:39:19;;;;;;;1.23;1.00;;;13.20;99.90;;;;;;5042317;28;20430;-67
2023/01/07 13:41:54;;;;;;;1.53;1.43;;;13.20;99.90;;;;;;5039575;28;20425;-67
2023/01/07 13:44:38;;;;;;;1.60;1.20;;;13.30;99.90;;;;;;5040540;28;20460;-67
2023/01/07 13:47:06;;;;;;;1.65;1.33;;;13.30;99.90;;;;;;5034099;28;20426;-67
2023/01/07 13:49:33;;;;;;;1.50;1.40;;;13.50;99.90;;;;;;5036337;28;20183;-67
2023/01/07 13:52:12;;;;;;;1.50;1.40;;;13.60;99.90;;;;;;5048412;28;20457;-67
2023/01/07 13:54:49;;;;;;;3.50;1.83;;;13.50;99.90;;;;;;5046198;28;20477;-66
2023/01/07 13:57:30;;;;;;;1.70;1.40;;;13.40;99.90;;;;;;5040342;28;20421;-66
2023/01/07 13:59:58;;;;;;;1.73;1.50;;;13.40;99.90;;;;;;5042627;28;20499;-68
2023/01/07 14:02:26;;;;;;;1.33;1.20;;;13.20;99.90;;;;;;5040959;28;20425;-67
2023/01/07 14:05:09;;;;;;;1.47;1.20;;;13.20;99.90;;;;;;5039220;28;20504;-67
2023/01/07 14:07:45;;;;;;;2.40;1.63;;;13.20;99.90;;;;;;5037442;28;20437;-67
2023/01/07 14:10:30;;;;;;;1.77;1.10;;;13.20;99.90;;;;;;5050176;28;20433;-68
2023/01/07 14:13:24;;;;;;;2.03;1.40;;;13.10;99.90;;;;;;5053058;28;20489;-68
2023/01/07 14:16:05;;;;;;;2.00;1.43;;;12.90;99.90;;;;;;5050822;28;20576;-67
2023/01/07 14:19:02;;;;;;;1.63;1.20;;;12.90;99.90;;;;;;5049575;28;20434;-68
2023/01/07 14:21:42;;;;;;;2.50;1.07;;;12.80;99.90;;;;;;5034176;28;20937;-68
2023/01/07 14:24:14;;;;;;;1.50;1.40;;;12.70;99.90;;;;;;5044345;28;20939;-69
2023/01/07 14:26:52;;;;;;;2.60;1.60;;;12.70;99.90;;;;;;5040863;28;20473;-69
2023/01/07 14:29:48;;;;;;;1.53;1.20;;;12.70;99.90;;;;;;5039460;28;20944;-66
2023/01/07 14:32:42;;;;;;;1.50;1.23;;;12.70;99.90;;;;;;5037220;28;20840;-67
2023/01/07 14:35:11;;;;;;;2.37;1.40;;;12.70;99.90;;;;;;5036865;28;20430;-78
2023/01/07 14:37:43;;;;;;;1.53;1.33;;;12.70;99.90;;;;;;5035392;28;20443;-68
2023/01/07 14:40:39;;;;;;;2.23;1.40;;;12.60;99.90;;;;;;5033658;28;20496;-71
2023/01/07 14:43:39;;;;;;;1.90;1.60;;;12.70;99.90;;;;;;5033978;28;20525;-67
2023/01/07 14:46:23;;;;;;;1.60;1.30;;;12.70;99.90;;;;;;5034001;28;20438;-68
2023/01/07 14:49:03;;;;;;;1.63;1.53;;;12.60;99.90;;;;;;5045629;28;20428;-67
2023/01/07 14:52:06;;;;;;;1.83;1.50;;;12.40;99.90;;;;;;5039063;28;20437;-67
2023/01/07 14:54:31;;;;;;;1.60;1.50;;;12.40;99.90;;;;;;5037151;28;20936;-69
2023/01/07 14:57:02;;;;;;;1.90;1.57;;;12.40;99.90;;;;;;5044719;28;20453;-67
2023/01/07 14:59:53;;;;;;;2.17;1.80;;;12.40;99.90;;;;;;5046157;28;20241;-67
2023/01/07 15:02:49;;;;;;;1.90;1.50;;;12.30;99.90;;;;;;5048367;28;20421;-70
2023/01/07 15:05:56;;;;;;;2.17;1.80;;;12.30;99.90;;;;;;5033116;28;20464;-68
2023/01/07 15:17:03;;;;;;;1.90;1.40;;;12.20;99.90;;;;;;5038365;28;20425;-66
2023/01/07 15:19:28;;;;;;;2.40;1.70;;;12.20;99.90;;;;;;5042276;28;20425;-68
2023/01/07 15:22:12;;;;;;;2.03;1.70;;;12.10;99.90;;;;;;5042124;28;20444;-67
2023/01/07 15:24:50;;;;;;;2.10;1.90;;;12.10;99.90;;;;;;5038655;28;20191;-68
2023/01/07 15:27:18;;;;;;;3.10;1.97;;;12.10;99.90;;;;;;5045321;28;20931;-67
2023/01/07 15:29:44;;;;;;;4.13;1.97;;;12.10;99.90;;;;;;5032616;28;20809;-68
2023/01/07 15:32:24;;;;;;;2.30;1.80;;;12.00;99.90;;;;;;5033836;28;20430;-68
2023/01/07 15:34:50;;;;;;;1.77;1.50;;;12.10;99.90;;;;;;5031990;28;20198;-72
2023/01/07 15:37:17;;;;;;;4.47;2.00;;;12.10;99.90;;;;;;5033682;28;20466;-68
2023/01/07 15:39:50;;;;;;;3.00;2.07;;;12.00;99.90;;;;;;5035597;28;20521;-67
2023/01/07 15:42:21;;;;;;;1.50;1.40;;;12.00;99.90;;;;;;5035040;28;20430;-68
2023/01/07 15:44:56;;;;;;;2.33;2.10;;;11.90;99.90;;;;;;5043182;28;20446;-68
2023/01/07 15:47:33;;;;;;;2.80;2.07;;;12.00;99.90;;;;;;5039103;28;20436;-68
2023/01/07 15:50:17;;;;;;;2.70;2.20;;;11.90;99.90;;;;;;5041549;28;20933;-68
2023/01/07 15:52:52;;;;;;;2.50;2.00;;;11.90;99.90;;;;;;5038352;28;20485;-68
2023/01/07 15:55:34;;;;;;;4.80;2.23;;;11.90;99.90;;;;;;5043546;28;20531;-68
2023/01/07 15:58:06;;;;;;;3.53;1.83;;;11.80;99.90;;;;;;5034536;28;20426;-68
2023/01/07 16:00:34;;;;;;;3.45;2.00;;;11.80;99.90;;;;;;5033784;28;20933;-67
2023/01/07 16:03:01;;;;;;;3.43;2.07;;;11.80;99.90;;;;;;5032792;28;20230;-69
2023/01/07 16:05:27;;;;;;;2.60;1.97;;;11.70;99.90;;;;;;5035017;28;20516;-68
2023/01/07 16:08:02;;;;;;;3.57;1.97;;;11.70;99.90;;;;;;5037835;28;20528;-68
2023/01/07 16:10:33;;;;;;;2.23;2.03;;;11.70;99.90;;;;;;5037123;28;20183;-68
2023/01/07 16:13:04;;;;;;;3.10;1.97;;;11.60;99.90;;;;;;5036264;28;20488;-67
2023/01/07 16:15:32;;;;;;;2.53;2.17;;;11.70;99.90;;;;;;5040327;28;20442;-69
2023/01/07 16:18:00;;;;;;;3.63;2.50;;;11.70;99.90;;;;;;5042687;28;20507;-68
2023/01/07 16:20:52;;;;;;;3.03;2.50;;;11.60;99.90;;;;;;5037146;28;20429;-69
2023/01/07 16:23:19;;;;;;;3.20;2.47;;;11.60;99.90;;;;;;5034652;28;20498;-68
2023/01/07 16:25:57;;;;;;;3.13;2.50;;;11.70;99.90;;;;;;5033153;28;20426;-69
2023/01/07 16:28:48;;;;;;;2.60;2.40;;;11.70;99.90;;;;;;5032587;28;20485;-68
2023/01/07 16:31:16;;;;;;;3.20;2.40;;;11.60;99.90;;;;;;5048991;28;20465;-68
2023/01/07 16:33:43;;;;;;;3.07;2.60;;;11.60;99.90;;;;;;5045720;28;21014;-68
2023/01/07 16:36:16;;;;;;;3.50;2.77;;;11.50;99.90;;;;;;5045322;28;20495;-68
2023/01/07 16:38:44;;;;;;;2.63;2.43;;;11.60;99.90;;;;;;5041843;28;20438;-68
2023/01/07 16:41:20;;;;;;;2.57;2.37;;;11.50;99.90;;;;;;5043782;28;20476;-69
2023/01/07 16:43:46;;;;;;;3.03;2.73;;;11.50;99.90;;;;;;5041461;28;20475;-68
2023/01/07 16:46:14;;;;;;;4.13;2.80;;;11.50;99.90;;;;;;5041654;28;20521;-68
2023/01/07 16:48:40;;;;;;;2.70;2.50;;;11.50;99.90;;;;;;5039674;28;20445;-69
2023/01/07 16:51:40;;;;;;;4.77;3.00;;;11.50;99.90;;;;;;5037641;28;20430;-68
2023/01/07 16:54:35;;;;;;;3.23;2.80;;;11.40;99.90;;;;;;5034723;28;20238;-69
2023/01/07 16:57:04;;;;;;;3.70;3.07;;;11.30;99.90;;;;;;5035865;28;20562;-69
2023/01/07 16:59:36;;;;;;;2.83;2.53;;;11.40;99.90;;;;;;5035079;28;20482;-69
2023/01/07 17:02:27;;;;;;;4.00;2.70;;;11.30;99.90;;;;;;5038078;28;20434;-69
2023/01/07 17:04:53;;;;;;;4.37;3.07;;;11.30;99.90;;;;;;5039412;28;20465;-69
2023/01/07 17:07:26;;;;;;;4.27;2.83;;;11.40;99.90;;;;;;5043865;28;20808;-69
2023/01/07 17:09:54;;;;;;;3.70;2.83;;;11.40;99.90;;;;;;5044573;28;20434;-69
2023/01/07 17:12:33;;;;;;;4.53;3.77;;;11.40;99.90;;;;;;5040907;28;20512;-71
2023/01/07 17:14:59;;;;;;;3.10;2.80;;;11.40;99.90;;;;;;5042470;28;20915;-70
2023/01/07 17:17:33;;;;;;;2.90;2.43;;;11.30;99.90;;;;;;5038615;28;20434;-70
2023/01/07 17:20:17;;;;;;;3.30;3.00;;;11.40;99.90;;;;;;5037685;28;20237;-71
2023/01/07 17:22:44;;;;;;;4.97;2.23;;;11.30;99.90;;;;;;5034033;28;20517;-69
2023/01/07 17:25:19;;;;;;;4.60;2.83;;;11.40;99.90;;;;;;5047782;28;20439;-71
2023/01/07 17:27:57;;;;;;;5.27;2.87;;;11.30;99.90;;;;;;5048531;28;20441;-71
2023/01/07 17:30:30;;;;;;;4.93;3.90;;;11.30;99.90;;;;;;5036713;28;20769;-68
2023/01/07 17:32:55;;;;;;;3.33;3.03;;;11.30;99.90;;;;;;5040169;28;20522;-69
2023/01/07 17:35:24;;;;;;;3.63;3.03;;;11.30;99.90;;;;;;5042064;28;20434;-71
2023/01/07 17:37:51;;;;;;;3.60;2.80;;;11.30;99.90;;;;;;5043414;28;20179;-69
2023/01/07 17:40:18;;;;;;;6.83;2.83;;;11.40;99.90;;;;;;5045028;28;20442;-68
2023/01/07 17:45:29;;;;;;;2.97;2.57;;;11.30;99.90;;;;;;5049070;28;20424;-68
2023/01/07 17:47:56;;;;;;;3.90;2.90;;;11.40;99.90;;;;;;5044930;28;20442;-69
2023/01/07 17:50:22;;;;;;;4.97;2.83;;;11.30;99.90;;;;;;5052408;28;20198;-68
2023/01/07 17:52:53;;;;;;;3.23;2.70;;;11.30;99.90;;;;;;5053037;28;20850;-68
2023/01/07 17:55:25;;;;;;;3.17;2.57;;;11.30;99.90;;;;;;5038034;28;20230;-68
2023/01/07 17:57:51;;;;;;;3.00;2.70;;;11.30;99.90;;;;;;5035200;28;20427;-68
2023/01/07 18:00:25;;;;;;;3.33;2.90;;;11.40;99.90;;;;;;5039483;28;20438;-68
2023/01/07 18:02:51;;;;;;;3.50;3.00;;;11.40;99.90;;;;;;5045147;28;20438;-69
2023/01/07 18:05:22;;;;;;;3.20;2.83;;;11.50;99.90;;;;;;5044095;28;20442;-69
2023/01/07 18:07:49;;;;;;;2.80;2.40;;;11.60;99.90;;;;;;5042127;28;20203;-69
2023/01/07 18:10:17;;;;;;;2.67;2.30;;;11.60;99.90;;;;;;5047161;28;20448;-67
2023/01/07 18:12:43;;;;;;;2.50;2.30;;;11.60;99.90;;;;;;5039522;28;21018;-69
2023/01/07 18:15:18;;;;;;;2.97;2.30;;;11.50;99.90;;;;;;5041731;28;20430;-67
2023/01/07 18:17:44;;;;;;;3.10;2.60;;;11.50;99.90;;;;;;5038353;28;20428;-67
2023/01/07 18:20:10;;;;;;;5.47;3.00;;;11.40;99.90;;;;;;5047546;28;20439;-66
2023/01/07 18:22:36;;;;;;;2.37;2.17;;;11.50;99.90;;;;;;5037846;28;20976;-67
2023/01/07 18:25:01;;;;;;;3.83;3.43;;;11.50;99.90;;;;;;5049034;28;20433;-67
2023/01/07 18:27:27;;;;;;;3.57;3.00;;;11.40;99.90;;;;;;5045822;28;20187;-67
2023/01/07 18:29:53;;;;;;;4.43;3.80;;;11.50;99.90;;;;;;5045393;28;20241;-68
2023/01/07 18:32:19;;;;;;;3.70;2.63;;;11.50;99.90;;;;;;5042513;28;20245;-67
2023/01/07 18:34:44;;;;;;;3.20;2.80;;;11.60;99.90;;;;;;5042471;28;20987;-67
2023/01/07 18:37:11;;;;;;;3.00;2.70;;;11.60;99.90;;;;;;5043352;28;20187;-67
2023/01/07 18:39:36;;;;;;;3.40;2.60;;;11.60;99.90;;;;;;5035348;28;20188;-68
2023/01/07 18:42:02;;;;;;;4.33;3.03;;;11.60;99.90;;;;;;5035685;28;20446;-67
2023/01/07 18:44:28;;;;;;;3.40;3.10;;;11.50;99.90;;;;;;5037715;28;20190;-67
2023/01/07 18:46:53;;;;;;;4.90;3.40;;;11.60;99.90;;;;;;5033194;28;20281;-69
2023/01/07 18:49:20;;;;;;;2.60;2.40;;;11.60;99.90;;;;;;5034389;28;20180;-67
2023/01/07 18:51:46;;;;;;;3.30;3.00;;;11.60;99.90;;;;;;5036355;28;20203;-66
2023/01/07 18:54:12;;;;;;;3.97;3.00;;;11.60;99.90;;;;;;5037864;28;20493;-67
2023/01/07 18:56:39;;;;;;;4.27;3.50;;;11.50;99.90;;;;;;5038724;28;20636;-68
2023/01/07 18:59:04;;;;;;;3.40;3.10;;;11.60;99.90;;;;;;5041680;28;20245;-70
2023/01/07 19:01:30;;;;;;;3.63;3.10;;;11.70;99.90;;;;;;5043323;28;20425;-68
2023/01/07 19:03:56;;;;;;;3.17;2.67;;;11.60;99.90;;;;;;5040691;28;20573;-68
2023/01/07 19:06:22;;;;;;;3.23;2.70;;;11.60;99.90;;;;;;5038376;28;20550;-69
2023/01/07 19:08:47;;;;;;;3.70;3.10;;;11.60;99.90;;;;;;5044146;28;20433;-68
2023/01/07 19:11:13;;;;;;;3.37;3.07;;;11.70;99.90;;;;;;5051078;28;20190;-69
2023/01/07 19:13:39;;;;;;;4.53;2.80;;;11.80;99.90;;;;;;5052710;28;20218;-69
2023/01/07 19:16:07;;;;;;;3.20;2.80;;;11.70;99.90;;;;;;5051638;28;20545;-69
2023/01/07 19:18:32;;;;;;;4.63;2.87;;;11.70;99.90;;;;;;5049812;28;20217;-69
2023/01/07 19:21:07;;;;;;;4.83;2.90;;;11.70;99.90;;;;;;5047969;28;20912;-69
2023/01/07 19:23:32;;;;;;;4.27;3.10;;;11.70;99.90;;;;;;5036152;28;20186;-69
2023/01/07 19:25:59;;;;;;;4.47;2.87;;;11.70;99.90;;;;;;5040943;28;20504;-68
2023/01/07 19:28:26;;;;;;;3.03;2.83;;;11.80;99.90;;;;;;5042420;28;20253;-69
2023/01/07 19:30:52;;;;;;;3.23;2.93;;;11.80;99.90;;;;;;5044415;28;20520;-68
2023/01/07 19:33:17;;;;;;;3.77;2.47;;;11.80;99.90;;;;;;5043181;28;20481;-70
2023/01/07 19:35:43;;;;;;;3.70;2.90;;;11.80;99.90;;;;;;5037087;28;20541;-73
2023/01/07 19:38:11;;;;;;;3.50;2.60;;;11.80;99.90;;;;;;5032847;28;20188;-70
2023/01/07 19:40:43;;;;;;;3.67;3.17;;;11.80;99.90;;;;;;5032387;28;20195;-70
2023/01/07 19:43:11;;;;;;;3.90;3.43;;;11.80;99.90;;;;;;5033264;28;20951;-70
2023/01/07 19:45:36;;;;;;;3.87;3.43;;;11.80;99.90;;;;;;5034678;28;20437;-71
2023/01/07 19:48:02;;;;;;;4.50;3.43;;;11.80;99.90;;;;;;5036749;28;20441;-71
2023/01/07 19:50:27;;;;;;;3.97;3.40;;;11.70;99.90;;;;;;5038091;28;20190;-69
2023/01/07 19:52:53;;;;;;;5.20;3.40;;;11.80;99.90;;;;;;5041265;28;20228;-70
2023/01/07 19:55:21;;;;;;;2.97;2.70;;;11.90;99.90;;;;;;5041057;28;20554;-69
2023/01/07 19:57:47;;;;;;;3.70;3.17;;;11.80;99.90;;;;;;5039751;28;20603;-68
2023/01/07 20:00:13;;;;;;;3.83;3.43;;;11.80;99.90;;;;;;5037653;28;20444;-67
2023/01/07 20:02:38;;;;;;;5.63;3.33;;;11.80;99.90;;;;;;5035956;28;20426;-68
2023/01/07 20:05:04;;;;;;;4.47;3.37;;;11.80;99.90;;;;;;5034304;28;20187;-68
2023/01/07 20:07:32;;;;;;;2.90;2.40;;;11.80;99.90;;;;;;5032600;28;20592;-68
2023/01/07 20:09:58;;;;;;;3.47;3.17;;;11.70;99.90;;;;;;5032819;28;20632;-68
2023/01/07 20:12:24;;;;;;;4.73;4.30;;;11.60;99.90;;;;;;5048098;28;20516;-68
2023/01/07 20:14:50;;;;;;;4.60;3.80;;;11.70;99.90;;;;;;5048048;28;20492;-68
2023/01/07 20:17:15;;;;;;;4.20;3.20;;;11.70;99.90;;;;;;5049320;28;20524;-68
2023/01/07 20:19:41;;;;;;;6.13;3.73;;;11.80;99.90;;;;;;5047292;28;20635;-68
2023/01/07 20:22:07;;;;;;;7.70;3.70;;;11.90;99.90;;;;;;5045395;28;20768;-68
2023/01/07 20:24:33;;;;;;;3.83;3.30;;;11.80;99.90;;;;;;5045222;28;20643;-67
2023/01/07 20:26:59;;;;;;;3.70;3.30;;;11.70;99.90;;;;;;5047640;28;20448;-68
2023/01/07 20:29:24;;;;;;;4.03;3.33;;;11.70;99.90;;;;;;5050943;28;20198;-68
2023/01/07 20:31:50;;;;;;;4.33;3.17;;;11.80;99.90;;;;;;5052926;28;20183;-68
2023/01/07 20:34:16;;;;;;;5.70;3.60;;;11.70;99.90;;;;;;5054722;28;20260;-67
2023/01/07 20:36:41;;;;;;;3.77;3.27;;;11.80;99.90;;;;;;5055404;28;20187;-68
2023/01/07 20:39:07;;;;;;;4.70;3.60;;;11.80;99.90;;;;;;5053601;28;20667;-67
2023/01/07 20:41:33;;;;;;;4.00;3.60;;;11.80;99.90;;;;;;5052017;28;20534;-68
2023/01/07 20:44:01;;;;;;;4.03;3.17;;;11.90;99.90;;;;;;5049952;28;20691;-68
2023/01/07 20:46:29;;;;;;;4.33;3.20;;;11.80;99.90;;;;;;5048151;28;20951;-68
2023/01/07 20:48:55;;;;;;;4.27;3.50;;;11.80;99.90;;;;;;5046325;28;20446;-68
2023/01/07 20:51:21;;;;;;;3.37;3.07;;;11.80;99.90;;;;;;5044871;28;20426;-68
2023/01/07 20:53:47;;;;;;;6.37;3.47;;;11.80;99.90;;;;;;5042208;28;20897;-68
2023/01/07 20:56:16;;;;;;;3.27;3.00;;;11.80;99.90;;;;;;5040711;28;20465;-67
2023/01/07 20:58:42;;;;;;;3.93;3.63;;;11.90;99.90;;;;;;5038936;28;20191;-68
2023/01/07 21:01:11;;;;;;;4.93;4.47;;;11.90;99.90;;;;;;5037323;28;20933;-68
2023/01/07 21:03:38;;;;;;;5.57;3.63;;;11.90;99.90;;;;;;5036029;28;20962;-68
2023/01/07 21:06:04;;;;;;;3.70;3.33;;;11.90;99.90;;;;;;5037899;28;20434;-67
2023/01/07 21:08:30;;;;;;;4.23;3.53;;;11.90;99.90;;;;;;5039138;28;20529;-67
2023/01/07 21:10:56;;;;;;;3.47;3.13;;;11.90;99.90;;;;;;5048832;28;20967;-67
2023/01/07 21:13:22;;;;;;;3.83;3.43;;;11.80;99.90;;;;;;5047701;28;20209;-67
2023/01/07 21:15:48;;;;;;;6.60;3.63;;;11.90;99.90;;;;;;5046020;28;20183;-67
2023/01/07 21:18:14;;;;;;;4.23;3.13;;;11.90;99.90;;;;;;5044353;28;20494;-67
2023/01/07 21:20:40;;;;;;;6.20;3.77;;;11.80;99.90;;;;;;5042433;28;20528;-67
2023/01/07 21:23:05;;;;;;;4.27;3.20;;;11.80;99.90;;;;;;5039464;28;20630;-67
2023/01/07 21:25:31;;;;;;;4.10;3.70;;;11.80;99.90;;;;;;5038742;28;20445;-68
2023/01/07 21:27:57;;;;;;;8.50;4.23;;;11.80;99.90;;;;;;5037162;28;20199;-69
2023/01/07 21:30:23;;;;;;;3.90;3.23;;;11.80;99.90;;;;;;5035618;28;20584;-67
2023/01/07 21:32:48;;;;;;;5.83;4.33;;;11.80;99.90;;;;;;5036563;28;20476;-68
2023/01/07 21:35:14;;;;;;;5.53;4.17;;;11.70;99.90;;;;;;5038542;28;20231;-67
2023/01/07 21:37:39;;;;;;;5.60;3.70;;;11.70;99.90;;;;;;5040271;28;20233;-67
2023/01/07 21:40:06;;;;;;;4.40;4.00;;;11.70;99.90;;;;;;5042211;28;20274;-67
2023/01/07 21:42:33;;;;;;;5.57;3.80;;;11.50;99.90;;;;;;5041234;28;20245;-68
2023/01/07 21:44:59;;;;;;;4.90;3.53;;;11.50;99.90;;;;;;5045836;28;20454;-68
2023/01/07 21:47:24;;;;;;;6.13;3.13;;;11.50;99.90;;;;;;5042516;28;20441;-67
2023/01/07 21:49:50;;;;;;;6.47;4.20;;;11.50;99.90;;;;;;5040921;28;20581;-67
2023/01/07 21:52:17;;;;;;;3.87;3.57;;;11.60;99.90;;;;;;5038996;28;20175;-68
2023/01/07 21:54:42;;;;;;;4.20;3.63;;;11.50;99.90;;;;;;5033880;28;20203;-68
2023/01/07 21:57:08;;;;;;;5.83;4.70;;;11.40;99.90;;;;;;5035483;28;20434;-67
2023/01/07 21:59:33;;;;;;;5.00;3.47;;;11.40;99.90;;;;;;5035833;28;20184;-67
2023/01/07 22:01:59;;;;;;;4.50;4.03;;;11.40;99.90;;;;;;5037648;28;20266;-68
2023/01/07 22:04:25;;;;;;;5.30;3.30;;;11.40;99.90;;;;;;5039394;28;20605;-68
2023/01/07 22:06:51;;;;;;;5.10;3.80;;;11.50;99.90;;;;;;5040945;28;20207;-66
2023/01/07 22:09:17;;;;;;;6.60;3.70;;;11.50;99.90;;;;;;5042556;28;20476;-67
2023/01/07 22:11:43;;;;;;;4.27;3.60;;;11.50;99.90;;;;;;5044271;28;20233;-67
2023/01/07 22:14:16;;;;;;;8.00;3.27;;;11.50;99.90;;;;;;5046127;28;20843;-67
2023/01/07 22:16:42;;;;;;;6.00;3.37;;;11.60;99.90;;;;;;5038797;28;20188;-67
2023/01/07 22:19:11;;;;;;;4.30;3.43;;;11.60;99.90;;;;;;5038731;28;20936;-69
2023/01/07 22:21:37;;;;;;;4.67;4.20;;;11.60;99.90;;;;;;5036838;28;20183;-67
2023/01/07 22:24:03;;;;;;;4.73;4.00;;;11.60;99.90;;;;;;5035394;28;20430;-66
2023/01/07 22:26:29;;;;;;;5.10;3.70;;;11.50;99.90;;;;;;5035077;28;20194;-66
2023/01/07 22:29:00;;;;;;;3.93;3.53;;;11.60;99.90;;;;;;5036876;28;20427;-69
2023/01/07 22:31:29;;;;;;;5.83;4.67;;;11.70;99.90;;;;;;5049311;28;20183;-68
2023/01/07 22:33:55;;;;;;;5.43;4.00;;;11.60;99.90;;;;;;5037907;28;20474;-68
2023/01/07 22:36:33;;;;;;;5.43;3.97;;;11.70;99.90;;;;;;5041861;28;20491;-68
2023/01/07 22:39:02;;;;;;;4.23;3.83;;;11.70;99.90;;;;;;5041468;28;20496;-67
2023/01/07 22:41:28;;;;;;;6.43;4.47;;;11.60;99.90;;;;;;5041886;28;20563;-67
2023/01/07 22:43:56;;;;;;;4.67;3.70;;;11.60;99.90;;;;;;5040145;28;20441;-67
2023/01/07 22:46:26;;;;;;;3.70;3.40;;;11.60;99.90;;;;;;5042312;28;20430;-67
2023/01/07 22:48:52;;;;;;;3.53;3.23;;;11.70;99.90;;;;;;5050732;28;20437;-67
2023/01/07 22:51:28;;;;;;;5.87;3.67;;;11.70;99.90;;;;;;5052167;28;20433;-67
2023/01/07 22:53:57;;;;;;;4.00;3.23;;;11.80;99.90;;;;;;5052372;28;20487;-67
2023/01/07 22:56:23;;;;;;;4.60;4.20;;;11.80;99.90;;;;;;5050861;28;20480;-67
2023/01/07 22:58:48;;;;;;;4.13;3.40;;;11.80;99.90;;;;;;5043839;28;20523;-67
2023/01/07 23:01:15;;;;;;;3.57;3.27;;;11.70;99.90;;;;;;5047119;28;20430;-67
2023/01/07 23:03:42;;;;;;;5.20;3.00;;;11.80;99.90;;;;;;5045231;28;20183;-67
2023/01/07 23:06:11;;;;;;;6.07;3.40;;;11.70;99.90;;;;;;5043485;28;20430;-67
2023/01/07 23:08:38;;;;;;;4.17;3.30;;;11.80;99.90;;;;;;5041393;28;20995;-68
2023/01/07 23:11:04;;;;;;;3.37;3.00;;;11.70;99.90;;;;;;5039956;28;20764;-67
2023/01/07 23:13:30;;;;;;;3.80;3.00;;;11.80;99.90;;;;;;5039898;28;20520;-68
2023/01/07 23:15:55;;;;;;;5.20;2.97;;;11.80;99.90;;;;;;5050271;28;20433;-68
2023/01/07 23:18:21;;;;;;;3.83;3.13;;;11.80;99.90;;;;;;5044928;28;20192;-67
2023/01/07 23:20:47;;;;;;;3.13;2.73;;;11.70;99.90;;;;;;5033958;28;20661;-68
2023/01/07 23:23:13;;;;;;;3.77;3.00;;;11.80;99.90;;;;;;5035564;28;20801;-68
2023/01/07 23:25:46;;;;;;;3.10;2.80;;;11.80;99.90;;;;;;5037182;28;20557;-68
2023/01/07 23:28:12;;;;;;;3.37;3.07;;;11.90;99.90;;;;;;5037026;28;20207;-68
2023/01/07 23:30:37;;;;;;;4.03;2.53;;;11.80;99.90;;;;;;5040693;28;20996;-68
2023/01/07 23:33:03;;;;;;;4.93;2.90;;;11.80;99.90;;;;;;5042639;28;20469;-68
2023/01/07 23:35:28;;;;;;;2.70;2.33;;;11.70;99.90;;;;;;5044360;28;20195;-67
2023/01/07 23:37:54;;;;;;;4.50;2.83;;;11.80;99.90;;;;;;5045897;28;20185;-67
2023/01/07 23:40:19;;;;;;;4.37;3.20;;;11.90;99.90;;;;;;5047582;28;20574;-67
2023/01/07 23:42:47;;;;;;;3.27;2.77;;;11.90;99.90;;;;;;5049734;28;20183;-68
2023/01/07 23:45:13;;;;;;;3.10;2.27;;;11.90;99.90;;;;;;5051342;28;20284;-68
2023/01/07 23:47:39;;;;;;;4.57;2.53;;;12.00;99.90;;;;;;5039595;28;20422;-68
2023/01/07 23:50:05;;;;;;;4.47;2.90;;;12.00;99.90;;;;;;5045451;28;20440;-68
2023/01/07 23:52:30;;;;;;;2.87;2.60;;;12.00;99.90;;;;;;5048558;28;20214;-68
2023/01/07 23:54:56;;;;;;;2.53;2.30;;;12.00;99.90;;;;;;5047132;28;20841;-67
2023/01/07 23:57:21;;;;;;;4.03;2.43;;;12.00;99.90;;;;;;5045187;28;20714;-68
2023/01/07 23:59:48;;;;;;;2.07;1.70;;;12.00;99.90;;;;;;5043629;28;20350;-68
